createdAt,value
2023-03-31T00:02:22.967Z,101275.00
2023-03-31T00:04:55.898Z,101263.00
2023-03-31T00:07:31.093Z,101276.00
2023-03-31T00:10:16.654Z,101279.00
2023-03-31T00:12:38.061Z,101287.00
2023-03-31T00:15:14.351Z,101278.00
2023-03-31T00:17:48.540Z,101277.00
2023-03-31T00:20:21.449Z,101268.00
2023-03-31T00:22:56.569Z,101272.00
2023-03-31T00:25:29.482Z,101255.00
2023-03-31T00:28:02.373Z,101259.00
2023-03-31T00:30:38.573Z,101257.00
2023-03-31T00:33:12.283Z,101254.00
2023-03-31T00:35:45.798Z,101252.00
2023-03-31T00:38:18.797Z,101242.00
2023-03-31T00:40:53.919Z,101238.00
2023-03-31T00:43:37.609Z,101248.00
2023-03-31T00:46:13.623Z,101248.00
2023-03-31T00:48:51.859Z,101234.00
2023-03-31T00:51:26.105Z,101232.00
2023-03-31T00:54:04.183Z,101230.00
2023-03-31T00:56:40.154Z,101227.00
2023-03-31T00:59:17.593Z,101218.00
2023-03-31T01:01:52.576Z,101221.00
2023-03-31T01:04:25.907Z,101226.00
2023-03-31T01:07:01.798Z,101216.00
2023-03-31T01:09:37.559Z,101217.00
2023-03-31T01:12:12.296Z,101212.00
2023-03-31T01:14:45.357Z,101209.00
2023-03-31T01:17:20.726Z,101201.00
2023-03-31T01:19:59.430Z,101213.00
2023-03-31T01:22:51.293Z,101213.00
2023-03-31T01:25:45.636Z,101206.00
2023-03-31T01:28:29.201Z,101201.00
2023-03-31T01:31:31.533Z,101201.00
2023-03-31T01:34:10.112Z,101188.00
2023-03-31T01:36:45.459Z,101195.00
2023-03-31T01:39:26.037Z,101178.00
2023-03-31T01:42:03.722Z,101176.00
2023-03-31T01:44:51.048Z,101169.00
2023-03-31T01:47:32.729Z,101186.00
2023-03-31T01:50:16.871Z,101185.00
2023-03-31T01:53:09.460Z,101175.00
2023-03-31T01:55:46.868Z,101168.00
2023-03-31T01:58:30.310Z,101162.00
2023-03-31T02:01:05.555Z,101166.00
2023-03-31T02:03:40.551Z,101168.00
2023-03-31T02:06:18.393Z,101166.00
2023-03-31T02:09:08.620Z,101170.00
2023-03-31T02:11:43.497Z,101171.00
2023-03-31T02:14:19.615Z,101171.00
2023-03-31T02:16:54.328Z,101170.00
2023-03-31T02:19:28.315Z,101153.00
2023-03-31T02:22:01.411Z,101146.00
2023-03-31T02:24:36.522Z,101146.00
2023-03-31T02:27:23.407Z,101160.00
2023-03-31T02:29:57.317Z,101166.00
2023-03-31T02:32:35.182Z,101167.00
2023-03-31T02:35:09.824Z,101164.00
2023-03-31T02:37:43.842Z,101164.00
2023-03-31T02:40:18.821Z,101164.00
2023-03-31T02:42:52.434Z,101162.00
2023-03-31T02:45:46.700Z,101168.00
2023-03-31T02:48:33.675Z,101158.00
2023-03-31T02:51:14.039Z,101158.00
2023-03-31T02:54:09.802Z,101160.00
2023-03-31T02:57:00.149Z,101156.00
2023-03-31T02:59:47.344Z,101151.00
2023-03-31T03:02:41.761Z,101150.00
2023-03-31T03:05:17.184Z,101156.00
2023-03-31T03:08:18.292Z,101150.00
2023-03-31T03:11:05.274Z,101157.00
2023-03-31T03:13:55.195Z,101146.00
2023-03-31T03:16:34.266Z,101133.00
2023-03-31T03:19:09.486Z,101138.00
2023-03-31T03:21:42.501Z,101144.00
2023-03-31T03:24:15.543Z,101135.00
2023-03-31T03:30:06.374Z,101141.00
2023-03-31T03:32:39.414Z,101138.00
2023-03-31T03:35:13.620Z,101129.00
2023-03-31T03:37:53.654Z,101128.00
2023-03-31T03:40:28.724Z,101119.00
2023-03-31T03:43:01.635Z,101117.00
2023-03-31T03:45:34.675Z,101113.00
2023-03-31T03:48:08.235Z,101128.00
2023-03-31T03:50:41.707Z,101119.00
2023-03-31T03:53:14.732Z,101108.00
2023-03-31T03:55:47.615Z,101107.00
2023-03-31T03:58:25.086Z,101111.00
2023-03-31T04:00:58.891Z,101105.00
2023-03-31T04:03:31.823Z,101094.00
2023-03-31T04:06:07.355Z,101099.00
2023-03-31T04:08:40.418Z,101094.00
2023-03-31T04:11:24.013Z,101093.00
2023-03-31T04:13:57.156Z,101092.00
2023-03-31T04:16:30.203Z,101094.00
2023-03-31T04:19:04.228Z,101108.00
2023-03-31T04:21:41.389Z,101112.00
2023-03-31T04:24:16.589Z,101104.00
2023-03-31T04:26:50.830Z,101102.00
2023-03-31T04:29:25.169Z,101116.00
2023-03-31T04:32:02.819Z,101101.00
2023-03-31T04:34:39.264Z,101099.00
2023-03-31T04:37:12.619Z,101108.00
2023-03-31T04:39:47.096Z,101114.00
2023-03-31T04:42:24.292Z,101103.00
2023-03-31T04:44:57.393Z,101110.00
2023-03-31T04:47:30.399Z,101110.00
2023-03-31T04:50:03.295Z,101116.00
2023-03-31T04:52:36.341Z,101113.00
2023-03-31T04:55:09.622Z,101107.00
2023-03-31T04:57:42.446Z,101112.00
2023-03-31T05:00:16.635Z,101110.00
2023-03-31T05:02:49.732Z,101115.00
2023-03-31T05:05:23.420Z,101120.00
2023-03-31T05:07:56.484Z,101107.00
2023-03-31T05:10:30.846Z,101114.00
2023-03-31T05:13:03.536Z,101110.00
2023-03-31T05:15:37.038Z,101109.00
2023-03-31T05:18:10.471Z,101117.00
2023-03-31T05:20:43.481Z,101118.00
2023-03-31T05:23:16.704Z,101117.00
2023-03-31T05:25:50.752Z,101118.00
2023-03-31T05:28:23.844Z,101117.00
2023-03-31T05:30:56.848Z,101119.00
2023-03-31T05:33:29.824Z,101126.00
2023-03-31T05:36:02.969Z,101132.00
2023-03-31T05:38:36.592Z,101134.00
2023-03-31T05:41:11.284Z,101133.00
2023-03-31T05:43:45.159Z,101137.00
2023-03-31T05:46:18.074Z,101138.00
2023-03-31T05:48:51.085Z,101128.00
2023-03-31T05:51:23.861Z,101142.00
2023-03-31T05:53:56.803Z,101129.00
2023-03-31T05:56:29.745Z,101127.00
2023-03-31T05:59:05.262Z,101133.00
2023-03-31T06:01:38.386Z,101129.00
2023-03-31T06:04:11.441Z,101138.00
2023-03-31T06:06:44.741Z,101126.00
2023-03-31T06:09:17.905Z,101128.00
2023-03-31T06:11:50.823Z,101127.00
2023-03-31T06:14:24.230Z,101123.00
2023-03-31T06:16:58.097Z,101127.00
2023-03-31T06:19:31.170Z,101122.00
2023-03-31T06:22:03.991Z,101123.00
2023-03-31T06:24:36.927Z,101122.00
2023-03-31T06:27:11.029Z,101125.00
2023-03-31T06:29:43.889Z,101120.00
2023-03-31T06:32:16.635Z,101129.00
2023-03-31T06:34:49.604Z,101125.00
2023-03-31T06:37:22.543Z,101117.00
2023-03-31T06:39:55.764Z,101114.00
2023-03-31T06:42:28.762Z,101117.00
2023-03-31T06:45:01.646Z,101127.00
2023-03-31T06:47:34.940Z,101117.00
2023-03-31T06:50:08.798Z,101128.00
2023-03-31T06:52:42.848Z,101126.00
2023-03-31T06:55:16.963Z,101121.00
2023-03-31T06:57:49.603Z,101126.00
2023-03-31T07:00:23.473Z,101120.00
2023-03-31T07:02:56.544Z,101113.00
2023-03-31T07:05:30.650Z,101119.00
2023-03-31T07:08:04.712Z,101118.00
2023-03-31T07:10:37.508Z,101121.00
2023-03-31T07:13:10.651Z,101109.00
2023-03-31T07:15:43.650Z,101115.00
2023-03-31T07:18:17.583Z,101111.00
2023-03-31T07:20:54.222Z,101103.00
2023-03-31T07:23:27.033Z,101110.00
2023-03-31T07:26:01.318Z,101116.00
2023-03-31T07:28:34.756Z,101120.00
2023-03-31T07:31:08.865Z,101126.00
2023-03-31T07:33:41.494Z,101119.00
2023-03-31T07:36:14.831Z,101127.00
2023-03-31T07:38:50.771Z,101124.00
2023-03-31T07:41:25.839Z,101129.00
2023-03-31T07:44:03.093Z,101134.00
2023-03-31T07:46:36.344Z,101130.00
2023-03-31T07:49:09.752Z,101129.00
2023-03-31T07:51:42.768Z,101132.00
2023-03-31T07:54:15.893Z,101123.00
2023-03-31T07:56:48.685Z,101121.00
2023-03-31T07:59:21.493Z,101125.00
2023-03-31T08:01:54.499Z,101134.00
2023-03-31T08:04:27.575Z,101128.00
2023-03-31T08:07:00.998Z,101128.00
2023-03-31T08:09:33.869Z,101119.00
2023-03-31T08:12:06.764Z,101110.00
2023-03-31T08:14:41.718Z,101120.00
2023-03-31T08:17:14.086Z,101118.00
2023-03-31T08:19:47.300Z,101124.00
2023-03-31T08:22:20.250Z,101125.00
2023-03-31T08:24:53.404Z,101133.00
2023-03-31T08:27:26.312Z,101142.00
2023-03-31T08:29:59.356Z,101135.00
2023-03-31T08:32:32.561Z,101140.00
2023-03-31T08:35:05.677Z,101137.00
2023-03-31T08:37:39.573Z,101139.00
2023-03-31T08:40:14.377Z,101134.00
2023-03-31T08:42:51.970Z,101148.00
2023-03-31T08:45:33.061Z,101143.00
2023-03-31T08:48:13.934Z,101147.00
2023-03-31T08:50:48.532Z,101149.00
2023-03-31T08:53:42.621Z,101145.00
2023-03-31T08:56:23.458Z,101151.00
2023-03-31T08:58:57.652Z,101150.00
2023-03-31T09:01:47.747Z,101146.00
2023-03-31T09:04:20.719Z,101139.00
2023-03-31T09:07:19.762Z,101141.00
2023-03-31T09:09:57.826Z,101146.00
2023-03-31T09:12:49.087Z,101152.00
2023-03-31T09:15:39.161Z,101144.00
2023-03-31T09:18:19.659Z,101138.00
2023-03-31T09:20:54.371Z,101134.00
2023-03-31T09:23:35.386Z,101139.00
2023-03-31T09:26:14.133Z,101128.00
2023-03-31T09:28:52.876Z,101125.00
2023-03-31T09:31:27.413Z,101123.00
2023-03-31T09:34:05.540Z,101114.00
2023-03-31T09:36:38.274Z,101118.00
2023-03-31T09:39:12.587Z,101111.00
2023-03-31T09:41:47.670Z,101121.00
2023-03-31T09:44:32.108Z,101124.00
2023-03-31T09:47:07.198Z,101119.00
2023-03-31T09:49:41.581Z,101123.00
2023-03-31T09:52:28.905Z,101135.00
2023-03-31T09:55:06.249Z,101128.00
2023-03-31T09:57:40.825Z,101134.00
2023-03-31T10:00:24.944Z,101140.00
2023-03-31T10:03:03.475Z,101129.00
2023-03-31T10:05:56.190Z,101127.00
2023-03-31T10:08:37.191Z,101134.00
2023-03-31T10:11:11.925Z,101128.00
2023-03-31T10:13:56.073Z,101134.00
2023-03-31T10:16:34.032Z,101131.00
2023-03-31T10:19:35.708Z,101134.00
2023-03-31T10:22:10.762Z,101130.00
2023-03-31T10:24:48.980Z,101129.00
2023-03-31T10:27:36.325Z,101119.00
2023-03-31T10:30:11.257Z,101128.00
2023-03-31T10:32:51.290Z,101128.00
2023-03-31T10:35:38.876Z,101134.00
2023-03-31T10:38:16.462Z,101137.00
2023-03-31T10:40:57.617Z,101131.00
2023-03-31T10:43:33.295Z,101112.00
2023-03-31T10:46:07.194Z,101112.00
2023-03-31T10:48:42.914Z,101110.00
2023-03-31T10:51:26.270Z,101118.00
2023-03-31T10:54:01.668Z,101113.00
2023-03-31T10:56:39.217Z,101116.00
2023-03-31T10:59:36.616Z,101122.00
2023-03-31T11:02:23.364Z,101120.00
2023-03-31T11:05:19.592Z,101125.00
2023-03-31T11:08:03.040Z,101126.00
2023-03-31T11:10:57.578Z,101121.00
2023-03-31T11:13:54.173Z,101127.00
2023-03-31T11:16:41.333Z,101135.00
2023-03-31T11:19:22.312Z,101133.00
2023-03-31T11:22:29.130Z,101128.00
2023-03-31T11:25:25.416Z,101127.00
2023-03-31T11:28:16.510Z,101118.00
2023-03-31T11:30:51.260Z,101115.00
2023-03-31T11:33:44.251Z,101102.00
2023-03-31T11:36:22.775Z,101107.00
2023-03-31T11:39:29.796Z,101099.00
2023-03-31T11:42:07.786Z,101109.00
2023-03-31T11:44:49.194Z,101102.00
2023-03-31T11:47:24.121Z,101087.00
2023-03-31T11:50:04.943Z,101086.00
2023-03-31T11:52:42.593Z,101084.00
2023-03-31T11:55:23.587Z,101091.00
2023-03-31T11:58:13.308Z,101088.00
2023-03-31T12:01:03.421Z,101093.00
2023-03-31T12:03:43.448Z,101108.00
2023-03-31T12:06:19.809Z,101096.00
2023-03-31T12:08:54.890Z,101088.00
2023-03-31T12:11:38.276Z,101081.00
2023-03-31T12:14:19.122Z,101066.00
2023-03-31T12:16:54.157Z,101058.00
2023-03-31T12:19:49.923Z,101044.00
2023-03-31T12:22:27.541Z,101053.00
2023-03-31T12:25:00.372Z,101071.00
2023-03-31T12:27:41.086Z,101060.00
2023-03-31T12:30:24.480Z,101063.00
2023-03-31T12:33:14.710Z,101059.00
2023-03-31T12:35:55.421Z,101051.00
2023-03-31T12:38:34.579Z,101042.00
2023-03-31T12:41:30.057Z,101045.00
2023-03-31T12:44:10.356Z,101046.00
2023-03-31T12:47:04.092Z,101044.00
2023-03-31T12:50:01.198Z,101044.00
2023-03-31T12:52:42.022Z,101048.00
2023-03-31T12:55:48.686Z,101058.00
2023-03-31T12:58:33.977Z,101051.00
2023-03-31T13:01:09.273Z,101052.00
2023-03-31T13:03:49.882Z,101046.00
2023-03-31T13:06:34.141Z,101040.00
2023-03-31T13:09:21.724Z,101045.00
2023-03-31T13:11:54.639Z,101045.00
2023-03-31T13:14:47.573Z,101045.00
2023-03-31T13:17:31.204Z,101036.00
2023-03-31T13:20:39.506Z,101035.00
2023-03-31T13:23:30.419Z,101037.00
2023-03-31T13:26:04.362Z,101043.00
2023-03-31T13:28:48.101Z,101036.00
2023-03-31T13:31:20.939Z,101041.00
2023-03-31T13:34:05.246Z,101031.00
2023-03-31T13:36:40.240Z,101029.00
2023-03-31T13:39:33.531Z,101018.00
2023-03-31T13:42:24.941Z,101026.00
2023-03-31T13:45:05.339Z,101013.00
2023-03-31T13:47:53.128Z,101006.00
2023-03-31T13:50:59.202Z,101000.00
2023-03-31T13:53:38.210Z,100985.00
2023-03-31T13:56:30.336Z,100981.00
2023-03-31T13:59:10.634Z,100972.00
2023-03-31T14:01:57.694Z,100976.00
2023-03-31T14:04:48.894Z,100974.00
2023-03-31T14:07:23.744Z,100972.00
2023-03-31T14:09:58.599Z,100969.00
2023-03-31T14:12:39.478Z,100972.00
2023-03-31T14:15:14.555Z,100971.00
2023-03-31T14:17:48.671Z,100975.00
2023-03-31T14:20:23.852Z,100967.00
2023-03-31T14:23:01.884Z,100977.00
2023-03-31T14:25:48.622Z,100959.00
2023-03-31T14:28:28.743Z,100949.00
2023-03-31T14:31:22.751Z,100951.00
2023-03-31T14:34:12.884Z,100948.00
2023-03-31T14:36:54.606Z,100937.00
2023-03-31T14:39:29.708Z,100928.00
2023-03-31T14:42:10.158Z,100935.00
2023-03-31T14:44:45.773Z,100930.00
2023-03-31T14:47:26.329Z,100927.00
2023-03-31T14:50:08.020Z,100912.00
2023-03-31T14:52:41.051Z,100915.00
2023-03-31T14:55:16.727Z,100912.00
2023-03-31T14:57:51.328Z,100903.00
2023-03-31T15:00:32.727Z,100899.00
2023-03-31T15:03:07.792Z,100894.00
2023-03-31T15:05:41.928Z,100898.00
2023-03-31T15:08:19.704Z,100898.00
2023-03-31T15:10:58.856Z,100890.00
2023-03-31T15:13:39.790Z,100897.00
2023-03-31T15:16:27.223Z,100888.00
2023-03-31T15:19:00.601Z,100887.00
2023-03-31T15:21:35.500Z,100878.00
2023-03-31T15:24:09.710Z,100869.00
2023-03-31T15:26:53.953Z,100868.00
2023-03-31T15:29:44.325Z,100861.00
2023-03-31T15:32:31.213Z,100869.00
2023-03-31T15:35:18.821Z,100864.00
2023-03-31T15:37:44.179Z,100862.00
2023-03-31T15:40:33.935Z,100867.00
2023-03-31T15:43:24.597Z,100863.00
2023-03-31T15:45:56.193Z,100856.00
2023-03-31T15:48:35.305Z,100857.00
2023-03-31T15:51:19.381Z,100856.00
2023-03-31T15:53:54.784Z,100866.00
2023-03-31T15:56:49.546Z,100849.00
2023-03-31T15:59:34.273Z,100853.00
2023-03-31T16:02:04.542Z,100850.00
2023-03-31T16:04:39.098Z,100862.00
2023-03-31T16:07:20.219Z,100863.00
2023-03-31T16:09:58.332Z,100849.00
2023-03-31T16:12:36.064Z,100851.00
2023-03-31T16:15:11.307Z,100844.00
2023-03-31T16:17:55.149Z,100845.00
2023-03-31T16:20:29.980Z,100850.00
2023-03-31T16:23:03.371Z,100854.00
2023-03-31T16:25:37.595Z,100862.00
2023-03-31T16:28:11.037Z,100847.00
2023-03-31T16:30:45.262Z,100844.00
2023-03-31T16:33:20.197Z,100834.00
2023-03-31T16:35:59.184Z,100844.00
2023-03-31T16:38:32.771Z,100835.00
2023-03-31T16:41:05.587Z,100824.00
2023-03-31T16:43:38.571Z,100831.00
2023-03-31T16:46:11.511Z,100830.00
2023-03-31T16:48:44.623Z,100831.00
2023-03-31T16:51:17.846Z,100830.00
2023-03-31T16:53:51.872Z,100832.00
2023-03-31T16:56:25.051Z,100844.00
2023-03-31T16:58:58.356Z,100846.00
2023-03-31T17:01:31.379Z,100846.00
2023-03-31T17:04:04.209Z,100839.00
2023-03-31T17:06:37.177Z,100835.00
2023-03-31T17:09:10.087Z,100831.00
2023-03-31T17:11:43.354Z,100833.00
2023-03-31T17:14:20.866Z,100827.00
2023-03-31T17:16:54.576Z,100820.00
2023-03-31T17:19:28.410Z,100832.00
2023-03-31T17:22:02.595Z,100813.00
2023-03-31T17:24:35.435Z,100817.00
2023-03-31T17:27:08.521Z,100816.00
2023-03-31T17:29:41.344Z,100818.00
2023-03-31T17:32:15.541Z,100808.00
2023-03-31T17:34:49.762Z,100805.00
2023-03-31T17:37:23.391Z,100817.00
2023-03-31T17:39:56.207Z,100819.00
2023-03-31T17:42:29.360Z,100813.00
2023-03-31T17:45:02.202Z,100827.00
2023-03-31T17:47:35.897Z,100830.00
2023-03-31T17:50:10.645Z,100828.00
2023-03-31T17:52:43.539Z,100831.00
2023-03-31T17:55:16.834Z,100828.00
2023-03-31T17:57:49.734Z,100829.00
2023-03-31T18:00:22.848Z,100834.00
2023-03-31T18:02:57.059Z,100828.00
2023-03-31T18:05:29.986Z,100825.00
2023-03-31T18:08:02.953Z,100830.00
2023-03-31T18:10:37.382Z,100833.00
2023-03-31T18:13:10.730Z,100828.00
2023-03-31T18:15:44.988Z,100832.00
2023-03-31T18:18:18.021Z,100832.00
2023-03-31T18:20:51.032Z,100833.00
2023-03-31T18:23:24.011Z,100838.00
2023-03-31T18:25:56.837Z,100846.00
2023-03-31T18:28:30.029Z,100850.00
2023-03-31T18:31:04.438Z,100848.00
2023-03-31T18:33:37.412Z,100862.00
2023-03-31T18:36:11.050Z,100859.00
2023-03-31T18:38:44.537Z,100854.00
2023-03-31T18:41:17.784Z,100857.00
2023-03-31T18:43:51.981Z,100851.00
2023-03-31T18:46:24.928Z,100854.00
2023-03-31T18:48:57.830Z,100837.00
2023-03-31T18:51:30.672Z,100845.00
2023-03-31T18:54:03.925Z,100834.00
2023-03-31T18:56:37.017Z,100848.00
2023-03-31T18:59:09.772Z,100845.00
2023-03-31T19:01:42.578Z,100851.00
2023-03-31T19:04:15.610Z,100843.00
2023-03-31T19:06:48.507Z,100848.00
2023-03-31T19:09:21.976Z,100855.00
2023-03-31T19:11:55.114Z,100846.00
2023-03-31T19:14:27.970Z,100847.00
2023-03-31T19:17:01.503Z,100844.00
2023-03-31T19:19:34.421Z,100832.00
2023-03-31T19:22:07.095Z,100853.00
2023-03-31T19:24:39.959Z,100848.00
2023-03-31T19:27:14.148Z,100853.00
2023-03-31T19:29:47.219Z,100852.00
2023-03-31T19:32:20.030Z,100847.00
2023-03-31T19:34:54.135Z,100847.00
2023-03-31T19:37:27.581Z,100854.00
2023-03-31T19:40:00.514Z,100854.00
2023-03-31T19:42:33.472Z,100844.00
2023-03-31T19:45:06.699Z,100844.00
2023-03-31T19:47:39.377Z,100844.00
2023-03-31T19:50:13.408Z,100855.00
2023-03-31T19:52:48.576Z,100861.00
2023-03-31T19:55:21.603Z,100861.00
2023-03-31T19:57:55.523Z,100875.00
2023-03-31T20:00:28.879Z,100878.00
2023-03-31T20:03:02.040Z,100881.00
2023-03-31T20:05:35.847Z,100886.00
2023-03-31T20:08:08.738Z,100868.00
2023-03-31T20:10:42.358Z,100869.00
2023-03-31T20:13:15.231Z,100868.00
2023-03-31T20:15:48.590Z,100877.00
2023-03-31T20:18:21.499Z,100876.00
2023-03-31T20:20:54.569Z,100890.00
2023-03-31T20:23:27.744Z,100889.00
2023-03-31T20:26:00.540Z,100894.00
2023-03-31T20:28:33.598Z,100906.00
2023-03-31T20:31:11.476Z,100900.00
2023-03-31T20:33:45.137Z,100911.00
2023-03-31T20:36:20.060Z,100908.00
2023-03-31T20:38:54.497Z,100911.00
2023-03-31T20:41:29.924Z,100907.00
2023-03-31T20:44:03.067Z,100910.00
2023-03-31T20:46:36.030Z,100905.00
2023-03-31T20:49:09.161Z,100908.00
2023-03-31T20:51:43.536Z,100912.00
2023-03-31T20:54:16.837Z,100916.00
2023-03-31T20:56:49.619Z,100909.00
2023-03-31T20:59:23.618Z,100908.00
2023-03-31T21:01:56.422Z,100905.00
2023-03-31T21:04:29.283Z,100898.00
2023-03-31T21:07:02.351Z,100897.00
2023-03-31T21:09:35.038Z,100894.00
2023-03-31T21:12:08.183Z,100903.00
2023-03-31T21:14:40.917Z,100902.00
2023-03-31T21:17:13.949Z,100909.00
2023-03-31T21:19:46.855Z,100904.00
2023-03-31T21:22:19.795Z,100907.00
2023-03-31T21:24:52.662Z,100901.00
2023-03-31T21:27:26.255Z,100898.00
2023-03-31T21:29:59.529Z,100906.00
2023-03-31T21:32:33.399Z,100906.00
2023-03-31T21:35:07.226Z,100903.00
2023-03-31T21:37:40.492Z,100905.00
2023-03-31T21:40:15.955Z,100910.00
2023-03-31T21:42:52.244Z,100907.00
2023-03-31T21:45:25.151Z,100901.00
2023-03-31T21:47:58.593Z,100907.00
2023-03-31T21:50:31.593Z,100910.00
2023-03-31T21:53:08.254Z,100917.00
2023-03-31T21:55:42.137Z,100921.00
2023-03-31T21:58:19.558Z,100922.00
2023-03-31T22:00:52.464Z,100911.00
2023-03-31T22:03:28.127Z,100908.00
2023-03-31T22:06:01.621Z,100912.00
2023-03-31T22:08:35.344Z,100915.00
2023-03-31T22:11:09.645Z,100913.00
2023-03-31T22:13:42.944Z,100901.00
2023-03-31T22:16:24.291Z,100900.00
2023-03-31T22:18:57.708Z,100903.00
2023-03-31T22:21:30.703Z,100896.00
2023-03-31T22:24:04.578Z,100904.00
2023-03-31T22:26:37.689Z,100900.00
2023-03-31T22:29:10.551Z,100908.00
2023-03-31T22:31:43.500Z,100912.00
2023-03-31T22:34:16.496Z,100906.00
2023-03-31T22:36:52.909Z,100893.00
2023-03-31T22:39:25.939Z,100896.00
2023-03-31T22:41:58.853Z,100897.00
2023-03-31T22:44:31.670Z,100889.00
2023-03-31T22:47:04.761Z,100879.00
2023-03-31T22:49:37.630Z,100872.00
2023-03-31T22:52:10.683Z,100874.00
2023-03-31T22:54:43.665Z,100871.00
2023-03-31T22:57:17.106Z,100861.00
2023-03-31T22:59:50.044Z,100857.00
2023-03-31T23:02:23.076Z,100856.00
2023-03-31T23:04:56.088Z,100845.00
2023-03-31T23:07:29.523Z,100852.00
2023-03-31T23:10:02.552Z,100844.00
2023-03-31T23:12:35.333Z,100833.00
2023-03-31T23:15:08.814Z,100857.00
2023-03-31T23:17:41.828Z,100851.00
2023-03-31T23:20:15.443Z,100847.00
2023-03-31T23:22:48.559Z,100845.00
2023-03-31T23:25:21.310Z,100855.00
2023-03-31T23:27:54.132Z,100857.00
2023-03-31T23:30:27.115Z,100856.00
2023-03-31T23:32:59.993Z,100851.00
2023-03-31T23:35:33.358Z,100844.00
2023-03-31T23:38:06.627Z,100848.00
2023-03-31T23:40:39.565Z,100833.00
2023-03-31T23:43:13.163Z,100837.00
2023-03-31T23:45:46.204Z,100833.00
2023-03-31T23:48:19.238Z,100839.00
2023-03-31T23:50:52.076Z,100830.00
2023-03-31T23:53:24.912Z,100833.00
2023-03-31T23:55:59.773Z,100832.00
2023-03-31T23:58:33.126Z,100836.00
